Time;durP1;ratioP1;P1;durP2;ratioP2;P2;SDS_P1;SDS_P2;PMS_P1;PMS_P2;Temp;Humidity;BMP_temperature;BMP_pressure;BME280_temperature;BME280_humidity;BME280_pressure;Samples;Min_cycle;Max_cycle;Signal;HPM_P1;HPM_P2
2023/06/26 00:00:23;;;;;;;8.02;6.20;;;19.50;99.90;;;;;;4988276;28;20031;-49
2023/06/26 00:02:49;;;;;;;8.93;6.65;;;19.40;99.90;;;;;;4970834;28;20099;-50
2023/06/26 00:05:14;;;;;;;8.57;6.90;;;19.50;99.90;;;;;;4988111;28;20114;-50
2023/06/26 00:07:40;;;;;;;9.20;6.70;;;19.40;99.90;;;;;;4988046;28;20026;-50
2023/06/26 00:10:06;;;;;;;7.93;6.50;;;19.40;99.90;;;;;;4988292;28;20045;-49
2023/06/26 00:12:32;;;;;;;13.90;6.65;;;19.40;99.90;;;;;;4988080;28;20038;-50
2023/06/26 00:14:58;;;;;;;7.63;6.32;;;19.40;99.90;;;;;;4987352;28;20076;-48
2023/06/26 00:17:24;;;;;;;7.50;6.43;;;19.40;99.90;;;;;;4987646;28;20057;-51
2023/06/26 00:19:50;;;;;;;7.28;6.30;;;19.30;99.90;;;;;;4987988;28;20373;-49
2023/06/26 00:22:15;;;;;;;7.25;6.38;;;19.30;99.90;;;;;;4987892;28;20030;-48
2023/06/26 00:24:41;;;;;;;6.88;6.05;;;19.30;99.90;;;;;;4970382;28;20034;-51
2023/06/26 00:27:06;;;;;;;6.43;5.72;;;19.20;99.90;;;;;;4987449;28;20074;-50
2023/06/26 00:29:32;;;;;;;7.32;6.30;;;19.20;99.90;;;;;;4987749;28;20046;-48
2023/06/26 00:31:57;;;;;;;7.97;6.45;;;19.30;99.90;;;;;;4987738;28;20364;-51
2023/06/26 00:34:23;;;;;;;7.03;6.30;;;19.30;99.90;;;;;;4987817;28;20065;-50
2023/06/26 00:36:48;;;;;;;7.68;6.50;;;19.30;99.90;;;;;;4987625;28;20026;-48
2023/06/26 00:39:15;;;;;;;9.95;6.00;;;19.30;99.90;;;;;;4987717;28;20022;-51
2023/06/26 00:41:40;;;;;;;7.97;6.88;;;19.20;99.90;;;;;;4970409;28;20026;-49
2023/06/26 00:44:06;;;;;;;6.88;6.15;;;19.10;99.90;;;;;;4987735;28;20041;-50
2023/06/26 00:46:32;;;;;;;8.05;7.07;;;19.10;99.90;;;;;;4969581;28;20104;-51
2023/06/26 00:49:03;;;;;;;9.18;7.53;;;19.00;99.90;;;;;;4987470;28;20038;-50
2023/06/26 00:51:29;;;;;;;;;;;19.00;99.90;;;;;;4987982;28;20026;-48
2023/06/26 00:53:55;;;;;;;10.50;6.18;;;19.00;99.90;;;;;;4987423;28;20291;-48
2023/06/26 00:56:20;;;;;;;8.20;7.00;;;18.90;99.90;;;;;;4987182;28;20033;-50
2023/06/26 00:58:46;;;;;;;8.02;6.53;;;18.90;99.90;;;;;;4987885;28;20544;-51
2023/06/26 01:01:17;;;;;;;8.40;6.75;;;18.90;99.90;;;;;;4987525;28;20033;-50
2023/06/26 01:03:53;;;;;;;7.97;7.05;;;18.90;99.90;;;;;;4987434;28;20506;-48
2023/06/26 01:06:21;;;;;;;8.52;6.60;;;18.80;99.90;;;;;;4987077;28;20031;-49
2023/06/26 01:08:47;;;;;;;7.50;6.47;;;18.80;99.90;;;;;;4986622;28;20026;-50
2023/06/26 01:11:14;;;;;;;8.48;6.88;;;18.80;99.90;;;;;;4987172;28;20412;-50
2023/06/26 01:13:41;;;;;;;10.02;7.05;;;18.80;99.90;;;;;;4987116;28;20061;-49
2023/06/26 01:16:08;;;;;;;7.25;6.53;;;18.70;99.90;;;;;;4986814;28;20019;-48
2023/06/26 01:18:35;;;;;;;7.18;6.47;;;18.70;99.90;;;;;;4969609;28;20298;-50
2023/06/26 01:21:02;;;;;;;8.07;7.25;;;18.70;99.90;;;;;;4969624;28;20026;-47
2023/06/26 01:23:36;;;;;;;7.55;6.72;;;18.70;99.90;;;;;;4969940;28;20475;-48
2023/06/26 01:26:07;;;;;;;8.10;6.80;;;18.60;99.90;;;;;;4988684;28;20034;-51
2023/06/26 01:28:41;;;;;;;6.88;6.03;;;18.60;99.90;;;;;;4990877;28;20026;-48
2023/06/26 01:31:08;;;;;;;8.27;6.75;;;18.60;99.90;;;;;;4990781;28;20123;-50
2023/06/26 01:33:34;;;;;;;8.35;6.93;;;18.60;99.90;;;;;;4973025;28;20026;-48
2023/06/26 01:36:00;;;;;;;7.50;6.57;;;18.60;99.90;;;;;;4989943;28;20204;-47
2023/06/26 01:38:28;;;;;;;7.05;6.35;;;18.50;99.90;;;;;;4990340;28;20105;-48
2023/06/26 01:40:54;;;;;;;7.32;6.63;;;18.50;99.90;;;;;;4990463;28;20023;-49
2023/06/26 01:43:41;;;;;;;9.05;7.00;;;18.50;99.90;;;;;;4990329;28;20326;-50
2023/06/26 01:46:14;;;;;;;7.55;6.75;;;18.50;99.90;;;;;;4989908;28;20113;-50
2023/06/26 01:49:00;;;;;;;8.63;6.70;;;18.60;99.90;;;;;;4990167;28;20475;-47
2023/06/26 01:51:32;;;;;;;8.82;7.30;;;18.50;99.90;;;;;;4993236;28;20129;-49
2023/06/26 01:54:00;;;;;;;9.02;7.25;;;18.50;99.90;;;;;;4990114;28;20089;-49
2023/06/26 01:56:26;;;;;;;8.25;7.35;;;18.50;99.90;;;;;;4989581;28;20442;-47
2023/06/26 01:58:54;;;;;;;8.77;6.82;;;18.40;99.90;;;;;;4989997;28;20030;-48
2023/06/26 02:01:20;;;;;;;10.25;7.10;;;18.40;99.90;;;;;;4989956;28;20023;-49
2023/06/26 02:03:46;;;;;;;7.70;6.80;;;18.40;99.90;;;;;;4989968;28;20103;-49
2023/06/26 02:09:34;;;;;;;8.95;6.85;;;18.30;99.90;;;;;;4990024;28;20502;-47
2023/06/26 02:11:59;;;;;;;8.18;7.28;;;18.30;99.90;;;;;;4989992;28;20050;-50
2023/06/26 02:14:25;;;;;;;8.48;7.65;;;18.30;99.90;;;;;;4990065;28;20285;-49
2023/06/26 02:16:50;;;;;;;10.38;8.15;;;18.20;99.90;;;;;;4989602;28;20034;-48
2023/06/26 02:19:21;;;;;;;9.35;8.27;;;18.20;99.90;;;;;;4989924;28;20031;-48
2023/06/26 02:21:50;;;;;;;8.65;7.72;;;18.20;99.90;;;;;;4989844;28;20038;-50
2023/06/26 02:24:16;;;;;;;9.93;7.18;;;18.10;99.90;;;;;;4989768;28;20164;-47
2023/06/26 02:26:41;;;;;;;8.90;7.60;;;18.10;99.90;;;;;;4989795;28;20121;-50
2023/06/26 02:29:07;;;;;;;8.25;7.38;;;18.10;99.90;;;;;;4990014;28;20027;-49
2023/06/26 02:31:32;;;;;;;9.80;8.18;;;18.10;99.90;;;;;;4989690;28;20506;-47
2023/06/26 02:33:58;;;;;;;8.70;7.40;;;18.10;99.90;;;;;;4989825;28;20438;-47
2023/06/26 02:36:23;;;;;;;8.95;7.40;;;18.10;99.90;;;;;;4988828;28;20027;-49
2023/06/26 02:38:49;;;;;;;8.43;7.18;;;18.10;99.90;;;;;;4989220;28;20019;-48
2023/06/26 02:41:14;;;;;;;10.20;7.95;;;18.10;99.90;;;;;;4989488;28;20414;-50
2023/06/26 02:43:40;;;;;;;11.80;8.63;;;18.10;99.90;;;;;;4989492;28;20080;-47
2023/06/26 02:46:05;;;;;;;12.27;7.82;;;18.10;99.90;;;;;;4971401;28;20077;-48
2023/06/26 02:48:31;;;;;;;8.52;7.63;;;18.00;99.90;;;;;;4972069;28;20030;-47
2023/06/26 02:50:56;;;;;;;8.20;7.40;;;18.10;99.90;;;;;;4989609;28;20653;-47
2023/06/26 02:53:22;;;;;;;8.00;7.20;;;18.00;99.90;;;;;;4971860;28;20035;-47
2023/06/26 02:55:47;;;;;;;8.70;7.53;;;18.00;99.90;;;;;;4989080;28;20019;-47
2023/06/26 02:58:13;;;;;;;9.00;7.10;;;18.00;99.90;;;;;;4989001;28;20015;-48
2023/06/26 03:00:41;;;;;;;9.10;7.68;;;17.90;99.90;;;;;;4989141;28;20029;-49
2023/06/26 03:03:07;;;;;;;8.75;7.50;;;17.90;99.90;;;;;;4989069;28;20105;-47
2023/06/26 03:05:33;;;;;;;8.32;7.22;;;17.90;99.90;;;;;;4989155;28;20027;-50
2023/06/26 03:07:58;;;;;;;8.90;7.90;;;17.90;99.90;;;;;;4989161;28;20116;-48
2023/06/26 03:10:24;;;;;;;9.88;7.35;;;17.90;99.90;;;;;;4989167;28;20346;-50
2023/06/26 03:12:49;;;;;;;8.50;7.28;;;17.90;99.90;;;;;;4971493;28;20026;-51
2023/06/26 03:15:15;;;;;;;9.63;7.22;;;17.90;99.90;;;;;;4989362;28;20026;-50
2023/06/26 03:17:40;;;;;;;9.60;7.47;;;17.90;99.90;;;;;;4988684;28;20029;-48
2023/06/26 03:20:07;;;;;;;9.25;7.60;;;17.90;99.90;;;;;;4989180;28;20030;-50
2023/06/26 03:22:33;;;;;;;10.00;7.07;;;18.00;99.90;;;;;;4971359;28;20478;-48
2023/06/26 03:24:59;;;;;;;8.88;7.55;;;18.00;99.90;;;;;;4988672;28;20023;-49
2023/06/26 03:27:25;;;;;;;9.30;7.60;;;18.00;99.90;;;;;;4988256;28;20038;-50
2023/06/26 03:29:52;;;;;;;7.70;6.93;;;18.00;99.90;;;;;;4988586;28;20035;-49
2023/06/26 03:32:18;;;;;;;9.00;7.50;;;18.00;99.90;;;;;;4970940;28;20487;-48
2023/06/26 03:34:43;;;;;;;8.77;7.88;;;18.00;99.90;;;;;;4988743;28;20093;-50
2023/06/26 03:37:09;;;;;;;8.88;7.25;;;18.10;99.90;;;;;;4978888;28;20029;-49
2023/06/26 03:39:34;;;;;;;10.20;7.32;;;18.10;99.90;;;;;;4978283;28;20023;-48
2023/06/26 03:42:01;;;;;;;8.10;6.95;;;18.20;99.90;;;;;;4973259;28;20031;-51
2023/06/26 03:44:27;;;;;;;8.40;7.20;;;18.10;99.90;;;;;;4977401;28;20399;-48
2023/06/26 03:46:52;;;;;;;8.15;6.78;;;18.10;99.90;;;;;;4975509;28;20030;-50
2023/06/26 03:49:18;;;;;;;8.27;6.70;;;18.20;99.90;;;;;;4995057;28;20022;-49
2023/06/26 03:51:44;;;;;;;8.07;7.28;;;18.20;99.90;;;;;;4988049;28;20099;-49
2023/06/26 03:54:10;;;;;;;9.30;7.00;;;18.20;99.90;;;;;;4987801;28;20429;-48
2023/06/26 03:56:35;;;;;;;8.32;7.05;;;18.30;99.90;;;;;;4959954;28;20022;-48
2023/06/26 03:59:01;;;;;;;9.13;7.35;;;18.30;99.90;;;;;;4979050;28;20123;-47
2023/06/26 04:01:27;;;;;;;9.88;7.00;;;18.30;99.90;;;;;;4971293;28;20092;-50
2023/06/26 04:03:53;;;;;;;9.40;7.53;;;18.40;99.90;;;;;;4968731;28;20058;-50
2023/06/26 04:06:19;;;;;;;8.85;7.30;;;18.40;99.90;;;;;;4968384;28;20476;-50
2023/06/26 04:08:44;;;;;;;8.23;7.18;;;18.40;99.90;;;;;;4968675;28;20037;-49
2023/06/26 04:11:10;;;;;;;8.77;7.20;;;18.50;99.90;;;;;;4968589;28;20030;-48
2023/06/26 04:13:35;;;;;;;9.88;7.25;;;18.50;99.90;;;;;;4968546;28;20506;-48
2023/06/26 04:16:01;;;;;;;8.73;7.25;;;18.50;99.90;;;;;;4968130;28;20102;-48
2023/06/26 04:18:27;;;;;;;9.68;7.03;;;18.60;99.90;;;;;;4968843;28;20053;-51
2023/06/26 04:21:11;;;;;;;12.88;8.07;;;18.60;99.90;;;;;;4968564;28;20055;-50
2023/06/26 04:23:37;;;;;;;8.82;7.07;;;18.60;99.90;;;;;;4968611;28;20033;-48
2023/06/26 04:26:04;;;;;;;8.63;7.68;;;18.60;99.90;;;;;;4968172;28;20421;-49
2023/06/26 04:28:34;;;;;;;9.77;7.30;;;18.60;99.90;;;;;;4968321;28;20080;-49
2023/06/26 04:31:00;;;;;;;9.70;7.60;;;18.70;99.90;;;;;;4968478;28;20023;-48
2023/06/26 04:33:26;;;;;;;8.70;6.85;;;18.70;99.90;;;;;;4968277;28;20031;-49
2023/06/26 04:35:52;;;;;;;10.13;7.22;;;18.70;99.90;;;;;;4968254;28;20061;-50
2023/06/26 04:38:19;;;;;;;11.13;7.45;;;18.80;99.90;;;;;;4987147;28;20101;-48
2023/06/26 04:40:45;;;;;;;9.88;7.20;;;18.80;99.90;;;;;;4977989;28;20631;-51
2023/06/26 04:43:10;;;;;;;7.07;6.38;;;18.80;99.90;;;;;;4978200;28;20038;-49
2023/06/26 04:45:37;;;;;;;8.40;6.97;;;18.90;99.90;;;;;;4994195;28;20352;-48
2023/06/26 04:48:03;;;;;;;8.13;6.80;;;18.90;99.90;;;;;;4987262;28;20026;-50
2023/06/26 04:50:28;;;;;;;9.25;7.10;;;19.00;99.90;;;;;;4987518;28;20506;-51
2023/06/26 04:52:55;;;;;;;10.32;6.80;;;19.10;99.90;;;;;;4983652;28;20038;-50
2023/06/26 04:55:21;;;;;;;8.50;6.80;;;19.10;99.90;;;;;;4987136;28;20038;-49
2023/06/26 04:57:47;;;;;;;9.13;6.95;;;19.20;99.90;;;;;;4986715;28;20071;-50
2023/06/26 05:00:13;;;;;;;8.45;6.80;;;19.20;99.90;;;;;;4986630;28;20109;-49
2023/06/26 05:02:39;;;;;;;9.98;6.30;;;19.30;99.90;;;;;;4984251;28;20441;-50
2023/06/26 05:05:04;;;;;;;9.13;6.60;;;19.30;99.90;;;;;;4986930;28;20025;-50
2023/06/26 05:07:30;;;;;;;7.40;6.07;;;19.40;99.90;;;;;;4986484;28;20050;-48
2023/06/26 05:09:55;;;;;;;7.35;6.55;;;19.50;99.90;;;;;;4986798;28;20026;-50
2023/06/26 05:12:21;;;;;;;8.40;6.70;;;19.50;99.90;;;;;;4987031;28;20448;-51
2023/06/26 05:14:46;;;;;;;10.32;6.78;;;19.50;99.90;;;;;;4987055;28;20026;-50
2023/06/26 05:17:14;;;;;;;6.75;5.82;;;19.70;99.90;;;;;;4986540;28;20023;-49
2023/06/26 05:19:40;;;;;;;7.35;6.00;;;19.80;99.90;;;;;;4984642;28;20019;-50
2023/06/26 05:22:07;;;;;;;8.02;6.47;;;19.90;99.90;;;;;;4986827;28;20376;-50
2023/06/26 05:24:37;;;;;;;8.20;6.32;;;20.00;99.90;;;;;;4986653;28;20103;-52
2023/06/26 05:27:03;;;;;;;7.88;6.32;;;20.20;99.90;;;;;;4984016;28;20027;-51
2023/06/26 05:29:32;;;;;;;6.25;5.65;;;20.20;99.90;;;;;;4987285;28;20049;-48
2023/06/26 05:31:58;;;;;;;8.07;6.03;;;20.30;99.90;;;;;;5002213;28;20709;-49
2023/06/26 05:34:25;;;;;;;10.90;6.78;;;20.50;99.90;;;;;;4987058;28;20031;-49
2023/06/26 05:36:51;;;;;;;9.38;5.68;;;20.60;99.90;;;;;;4986891;28;20444;-48
2023/06/26 05:39:18;;;;;;;7.88;5.75;;;20.70;99.90;;;;;;4987025;28;20102;-50
2023/06/26 05:41:44;;;;;;;8.23;6.20;;;20.90;99.90;;;;;;4969482;28;20023;-49
2023/06/26 05:44:10;;;;;;;8.82;5.78;;;21.00;99.90;;;;;;4987035;28;20049;-50
2023/06/26 05:46:36;;;;;;;7.13;6.22;;;21.20;99.90;;;;;;4986420;28;20415;-50
2023/06/26 05:49:01;;;;;;;7.18;5.75;;;21.30;99.90;;;;;;4986989;28;20035;-52
2023/06/26 05:51:28;;;;;;;9.10;5.90;;;21.40;99.90;;;;;;4986843;28;20579;-50
2023/06/26 05:53:54;;;;;;;12.35;5.80;;;21.50;99.90;;;;;;5001523;28;20034;-50
2023/06/26 05:56:20;;;;;;;8.98;5.80;;;21.50;99.90;;;;;;4974322;28;20023;-48
2023/06/26 05:58:46;;;;;;;7.60;5.93;;;21.60;99.90;;;;;;4967318;28;20023;-51
2023/06/26 06:01:11;;;;;;;6.95;6.25;;;21.70;99.90;;;;;;4967423;28;20042;-51
2023/06/26 06:03:38;;;;;;;8.23;6.20;;;21.70;99.90;;;;;;4950035;28;20388;-51
2023/06/26 06:06:04;;;;;;;7.57;5.15;;;21.80;99.90;;;;;;4966695;28;20396;-51
2023/06/26 06:08:29;;;;;;;6.50;5.60;;;21.90;99.90;;;;;;4967733;28;20027;-51
2023/06/26 06:10:55;;;;;;;6.50;5.82;;;22.00;99.90;;;;;;4972366;28;20030;-51
2023/06/26 06:13:20;;;;;;;9.07;5.75;;;22.10;99.90;;;;;;4971798;28;20035;-51
2023/06/26 06:15:46;;;;;;;6.93;5.32;;;22.20;99.90;;;;;;4969724;28;20393;-51
2023/06/26 06:18:11;;;;;;;7.03;6.28;;;22.30;99.90;;;;;;4970150;28;20112;-51
2023/06/26 06:20:37;;;;;;;7.53;5.68;;;22.30;99.90;;;;;;4970454;28;20059;-51
2023/06/26 06:23:02;;;;;;;6.70;6.03;;;22.40;99.90;;;;;;4970501;28;20025;-51
2023/06/26 06:25:28;;;;;;;7.72;6.47;;;22.40;99.90;;;;;;4970395;28;20031;-51
2023/06/26 06:27:53;;;;;;;6.63;5.10;;;22.50;99.90;;;;;;4969904;28;20035;-51
2023/06/26 06:30:19;;;;;;;8.20;6.05;;;22.60;99.90;;;;;;4970216;28;20106;-51
2023/06/26 06:32:45;;;;;;;6.03;5.43;;;22.70;99.90;;;;;;4970243;28;20126;-51
2023/06/26 06:35:11;;;;;;;5.80;5.30;;;22.80;99.90;;;;;;4970335;28;20023;-51
2023/06/26 06:37:38;;;;;;;6.85;5.97;;;22.90;99.90;;;;;;4952435;28;20080;-52
2023/06/26 06:40:05;;;;;;;8.27;6.60;;;23.10;99.90;;;;;;4970114;28;20391;-51
2023/06/26 06:42:32;;;;;;;8.05;5.82;;;23.20;99.90;;;;;;4970044;28;20046;-51
2023/06/26 06:44:57;;;;;;;7.60;5.90;;;23.30;99.90;;;;;;4970079;28;20019;-52
2023/06/26 06:47:23;;;;;;;8.45;6.20;;;23.50;99.90;;;;;;4952369;28;20038;-52
2023/06/26 06:49:48;;;;;;;6.15;5.55;;;23.60;99.90;;;;;;5010471;28;20030;-52
2023/06/26 06:52:14;;;;;;;6.70;6.00;;;23.70;99.90;;;;;;5008887;28;20498;-52
2023/06/26 06:54:58;;;;;;;6.50;5.22;;;23.90;99.90;;;;;;5008294;28;20108;-51
2023/06/26 06:57:24;;;;;;;7.72;6.25;;;24.00;99.90;;;;;;5008059;28;20536;-51
2023/06/26 06:59:50;;;;;;;8.25;5.60;;;24.20;99.90;;;;;;5008584;28;20037;-52
2023/06/26 07:02:19;;;;;;;6.35;5.43;;;24.40;99.90;;;;;;5008726;28;20030;-51
2023/06/26 07:04:44;;;;;;;6.78;5.85;;;24.60;99.90;;;;;;5008776;28;20098;-49
2023/06/26 07:07:10;;;;;;;9.20;5.88;;;24.90;99.90;;;;;;5008432;28;20034;-52
2023/06/26 07:09:36;;;;;;;7.05;6.05;;;25.20;99.90;;;;;;5008476;28;20038;-52
2023/06/26 07:12:02;;;;;;;8.25;5.35;;;25.40;99.90;;;;;;4990992;28;20033;-51
2023/06/26 07:14:28;;;;;;;6.18;5.43;;;25.70;99.90;;;;;;5008459;28;20566;-50
2023/06/26 07:16:53;;;;;;;6.90;6.00;;;25.90;99.00;;;;;;5007894;28;20109;-52
2023/06/26 07:19:19;;;;;;;8.70;6.13;;;26.10;99.00;;;;;;4990773;28;20029;-51
2023/06/26 07:21:46;;;;;;;7.68;5.78;;;26.30;97.70;;;;;;5008348;28;20032;-52
2023/06/26 07:24:11;;;;;;;7.05;6.03;;;26.40;97.70;;;;;;5007926;28;20034;-54
2023/06/26 07:26:37;;;;;;;6.57;5.70;;;26.50;97.10;;;;;;5008093;28;20390;-51
2023/06/26 07:29:02;;;;;;;6.03;5.38;;;26.60;97.10;;;;;;4990229;28;20026;-51
2023/06/26 07:31:28;;;;;;;7.05;5.72;;;26.60;97.30;;;;;;5008193;28;20030;-52
2023/06/26 07:33:53;;;;;;;5.97;5.38;;;26.60;97.00;;;;;;5008137;28;20029;-51
2023/06/26 07:36:19;;;;;;;6.85;6.15;;;26.40;95.80;;;;;;5007554;28;20030;-51
2023/06/26 07:38:45;;;;;;;8.57;5.40;;;26.30;96.10;;;;;;5007941;28;20044;-51
2023/06/26 07:41:11;;;;;;;6.90;6.20;;;26.30;95.40;;;;;;5008088;28;20018;-50
2023/06/26 07:43:36;;;;;;;7.68;6.05;;;26.50;95.80;;;;;;4990724;28;20034;-52
2023/06/26 07:46:02;;;;;;;7.07;5.60;;;26.70;94.70;;;;;;5007693;28;20026;-52
2023/06/26 07:48:27;;;;;;;9.10;6.03;;;26.90;94.70;;;;;;5007675;28;20030;-51
2023/06/26 07:50:53;;;;;;;9.00;6.07;;;27.10;94.60;;;;;;5003509;28;20076;-52
2023/06/26 07:53:19;;;;;;;9.63;6.38;;;27.20;93.00;;;;;;4986831;28;20079;-51
2023/06/26 07:55:44;;;;;;;7.43;6.13;;;27.20;92.70;;;;;;4986461;28;20023;-52
2023/06/26 07:58:10;;;;;;;7.68;6.22;;;27.40;92.60;;;;;;4987709;28;20044;-53
2023/06/26 08:00:36;;;;;;;9.05;5.88;;;27.70;91.70;;;;;;4988454;28;20015;-52
2023/06/26 08:03:02;;;;;;;8.18;6.10;;;27.70;91.50;;;;;;4988077;28;20160;-53
2023/06/26 08:05:27;;;;;;;6.55;5.70;;;27.80;90.30;;;;;;4987745;28;20037;-53
2023/06/26 08:07:53;;;;;;;8.43;6.13;;;27.90;91.20;;;;;;4982333;28;20467;-54
2023/06/26 08:10:18;;;;;;;10.45;5.82;;;28.20;90.40;;;;;;4999515;28;20041;-54
2023/06/26 08:12:45;;;;;;;8.13;6.03;;;28.20;90.00;;;;;;5003812;28;20026;-54
2023/06/26 08:15:11;;;;;;;8.10;5.85;;;28.50;90.20;;;;;;4986250;28;20023;-54
2023/06/26 08:17:38;;;;;;;6.10;5.47;;;28.90;88.80;;;;;;5068042;28;20073;-54
2023/06/26 08:20:04;;;;;;;7.53;5.85;;;29.00;88.20;;;;;;5088086;28;20020;-54
2023/06/26 08:22:30;;;;;;;7.50;5.88;;;29.50;86.40;;;;;;5025048;28;20033;-54
2023/06/26 08:24:55;;;;;;;6.00;5.45;;;30.10;87.00;;;;;;5007360;28;20406;-52
2023/06/26 08:27:21;;;;;;;5.90;5.13;;;31.30;83.50;;;;;;5064196;28;20024;-53
2023/06/26 08:29:46;;;;;;;8.70;5.47;;;32.30;79.80;;;;;;5071427;28;20032;-52
2023/06/26 08:32:12;;;;;;;8.93;5.53;;;32.60;77.80;;;;;;5088904;28;20055;-52
2023/06/26 08:34:37;;;;;;;5.65;5.15;;;32.90;74.70;;;;;;5089121;28;20046;-52
2023/06/26 08:37:03;;;;;;;7.60;5.10;;;33.10;73.30;;;;;;5087953;28;20016;-53
2023/06/26 08:39:28;;;;;;;6.32;5.72;;;33.80;71.80;;;;;;5089452;28;20104;-52
2023/06/26 08:41:54;;;;;;;12.10;5.47;;;33.40;71.40;;;;;;5089828;28;20138;-52
2023/06/26 08:44:24;;;;;;;7.07;5.20;;;34.00;70.90;;;;;;5089563;28;20437;-52
2023/06/26 08:46:50;;;;;;;5.22;4.75;;;34.70;69.40;;;;;;5089295;28;20024;-53
2023/06/26 08:49:21;;;;;;;5.03;4.50;;;36.00;67.20;;;;;;5088811;28;20103;-53
2023/06/26 08:51:55;;;;;;;4.75;4.35;;;36.80;65.60;;;;;;5089737;28;20028;-53
2023/06/26 08:54:34;;;;;;;6.25;4.57;;;37.60;63.00;;;;;;5089607;28;20481;-53
2023/06/26 08:57:01;;;;;;;9.20;4.78;;;37.10;62.50;;;;;;5088919;28;20048;-53
2023/06/26 08:59:28;;;;;;;10.00;4.90;;;36.80;61.50;;;;;;5089363;28;20039;-53
2023/06/26 09:01:54;;;;;;;5.28;4.78;;;36.90;58.20;;;;;;5089548;28;20028;-53
2023/06/26 09:04:19;;;;;;;5.50;4.60;;;36.50;57.70;;;;;;5089599;28;20082;-53
2023/06/26 09:06:45;;;;;;;5.03;4.60;;;36.30;59.10;;;;;;5088685;28;20058;-53
2023/06/26 09:09:10;;;;;;;4.68;4.28;;;36.90;58.50;;;;;;5089341;28;20465;-52
2023/06/26 09:11:36;;;;;;;5.95;4.75;;;37.10;58.00;;;;;;5089539;28;20026;-52
2023/06/26 09:14:05;;;;;;;4.90;4.50;;;36.80;58.50;;;;;;5089244;28;20481;-52
2023/06/26 09:16:31;;;;;;;4.38;4.03;;;37.10;57.90;;;;;;5089594;28;20016;-53
2023/06/26 09:18:56;;;;;;;6.63;4.90;;;37.50;57.20;;;;;;5090133;28;20039;-53
2023/06/26 09:21:24;;;;;;;5.32;4.60;;;38.20;56.10;;;;;;5090038;28;20433;-53
2023/06/26 09:23:50;;;;;;;6.78;4.70;;;38.30;55.70;;;;;;5089770;28;20319;-53
2023/06/26 09:26:16;;;;;;;4.50;4.10;;;38.10;56.00;;;;;;5089006;28;20405;-53
2023/06/26 09:28:43;;;;;;;5.63;4.35;;;38.40;55.00;;;;;;5089289;28;20020;-53
2023/06/26 09:31:09;;;;;;;7.05;4.57;;;38.10;55.10;;;;;;5089384;28;20254;-53
2023/06/26 09:33:36;;;;;;;5.72;5.22;;;38.80;55.90;;;;;;5089273;28;20094;-53
2023/06/26 09:36:17;;;;;;;4.88;4.47;;;38.60;54.30;;;;;;5088805;28;20406;-53
2023/06/26 09:38:43;;;;;;;5.55;4.22;;;38.70;55.00;;;;;;5089246;28;20020;-53
2023/06/26 09:41:09;;;;;;;4.95;4.45;;;38.80;55.40;;;;;;5089315;28;20548;-53
2023/06/26 09:43:34;;;;;;;7.25;4.97;;;38.30;56.40;;;;;;5089566;28;20020;-53
2023/06/26 09:46:00;;;;;;;4.93;4.53;;;38.60;54.00;;;;;;5089334;28;20039;-53
2023/06/26 09:48:27;;;;;;;5.38;4.25;;;38.90;53.60;;;;;;5093212;28;20028;-53
2023/06/26 09:50:53;;;;;;;5.20;3.78;;;39.40;55.00;;;;;;5093165;28;20047;-54
2023/06/26 09:53:20;;;;;;;7.70;4.70;;;39.90;52.90;;;;;;5093306;28;20034;-54
2023/06/26 09:55:46;;;;;;;8.88;4.95;;;39.10;53.00;;;;;;5080204;28;20105;-54
2023/06/26 09:58:15;;;;;;;5.05;4.60;;;38.70;55.40;;;;;;4989864;28;20015;-54
2023/06/26 10:00:42;;;;;;;;;;;39.00;55.10;;;;;;4990873;28;20027;-54
2023/06/26 10:03:08;;;;;;;6.97;4.70;;;39.70;53.10;;;;;;4972864;28;20358;-54
2023/06/26 10:05:34;;;;;;;7.32;5.15;;;39.00;53.10;;;;;;4989907;28;20030;-54
2023/06/26 10:08:00;;;;;;;5.07;4.55;;;37.30;56.00;;;;;;4989709;28;20026;-54
2023/06/26 10:10:27;;;;;;;5.03;4.50;;;37.00;56.90;;;;;;4990322;28;20422;-54
2023/06/26 10:12:58;;;;;;;5.40;4.90;;;36.50;56.90;;;;;;4972497;28;20031;-54
2023/06/26 10:15:25;;;;;;;7.03;5.70;;;35.70;57.60;;;;;;4990096;28;20427;-53
2023/06/26 10:17:54;;;;;;;6.53;5.03;;;36.10;57.60;;;;;;4989463;28;20114;-54
2023/06/26 10:20:20;;;;;;;6.25;5.45;;;36.50;57.70;;;;;;4990013;28;20124;-54
2023/06/26 10:22:47;;;;;;;5.95;5.43;;;36.80;56.40;;;;;;4990300;28;20085;-54
2023/06/26 10:25:17;;;;;;;6.85;5.55;;;37.00;56.30;;;;;;4989766;28;20109;-54
2023/06/26 10:27:48;;;;;;;5.32;4.82;;;37.10;55.60;;;;;;4989841;28;20521;-53
2023/06/26 10:30:19;;;;;;;7.40;5.07;;;36.80;57.50;;;;;;4972348;28;20050;-53
2023/06/26 10:32:46;;;;;;;6.28;4.90;;;37.10;58.80;;;;;;4989617;28;20028;-53
2023/06/26 10:35:12;;;;;;;11.45;5.85;;;37.90;57.00;;;;;;4989514;28;20027;-53
2023/06/26 10:37:43;;;;;;;7.20;5.35;;;37.80;57.30;;;;;;4989344;28;20601;-53
2023/06/26 10:40:09;;;;;;;6.43;4.90;;;38.00;57.10;;;;;;4989743;28;20029;-53
2023/06/26 10:42:37;;;;;;;6.18;5.57;;;37.80;55.90;;;;;;4989506;28;20387;-53
2023/06/26 10:45:22;;;;;;;11.23;5.47;;;37.20;57.00;;;;;;4989459;28;20030;-53
2023/06/26 10:47:52;;;;;;;10.73;5.40;;;37.60;56.70;;;;;;4988948;28;20430;-53
2023/06/26 10:50:21;;;;;;;6.43;5.70;;;37.00;57.20;;;;;;4989612;28;20034;-53
2023/06/26 10:53:10;;;;;;;7.63;5.78;;;36.90;57.30;;;;;;4989456;28;20518;-53
2023/06/26 10:55:36;;;;;;;8.25;5.65;;;37.30;56.60;;;;;;4989234;28;20515;-53
2023/06/26 10:58:02;;;;;;;6.50;5.90;;;37.40;58.00;;;;;;4988617;28;20511;-53
2023/06/26 11:00:28;;;;;;;9.93;6.40;;;37.70;57.20;;;;;;4989255;28;20050;-53
2023/06/26 11:02:53;;;;;;;7.88;6.30;;;37.10;56.60;;;;;;4989189;28;20023;-53
2023/06/26 11:05:32;;;;;;;8.10;6.25;;;37.20;57.90;;;;;;4971888;28;20088;-53
2023/06/26 11:08:12;;;;;;;8.57;6.30;;;36.80;58.50;;;;;;4989034;28;20491;-53
2023/06/26 11:10:51;;;;;;;12.25;7.38;;;36.30;59.00;;;;;;4989023;28;20035;-53
2023/06/26 11:13:19;;;;;;;14.65;7.03;;;35.20;59.80;;;;;;4988995;28;20026;-53
2023/06/26 11:15:45;;;;;;;10.23;7.13;;;34.30;61.30;;;;;;4988834;28;20471;-53
2023/06/26 11:18:12;;;;;;;15.77;7.97;;;33.40;63.20;;;;;;4988929;28;20030;-53
2023/06/26 11:20:37;;;;;;;14.55;8.25;;;33.40;62.90;;;;;;4989291;28;20062;-53
2023/06/26 11:23:06;;;;;;;14.23;7.90;;;33.30;64.20;;;;;;4988920;28;20037;-53
2023/06/26 11:25:35;;;;;;;11.93;7.82;;;33.60;64.70;;;;;;4988761;28;20366;-53
2023/06/26 11:28:00;;;;;;;12.00;8.00;;;33.60;64.00;;;;;;4988729;28;20148;-53
2023/06/26 11:30:27;;;;;;;14.98;8.98;;;32.80;65.80;;;;;;4989015;28;20436;-53
2023/06/26 11:32:52;;;;;;;17.40;8.77;;;32.60;66.20;;;;;;4988423;28;20368;-52
2023/06/26 11:35:30;;;;;;;10.82;8.70;;;32.20;67.50;;;;;;4988235;28;20056;-53
2023/06/26 11:38:04;;;;;;;10.38;9.00;;;31.70;67.80;;;;;;4986624;28;20014;-52
2023/06/26 11:40:31;;;;;;;12.82;9.38;;;30.80;70.00;;;;;;4968900;28;20528;-53
2023/06/26 11:43:01;;;;;;;12.20;8.82;;;30.20;70.90;;;;;;4988332;28;20023;-52
2023/06/26 11:45:31;;;;;;;17.65;9.00;;;29.70;71.90;;;;;;4986185;28;20025;-52
2023/06/26 11:47:58;;;;;;;11.50;9.07;;;29.20;73.60;;;;;;4970475;28;20018;-52
2023/06/26 11:50:24;;;;;;;13.90;11.20;;;29.10;74.70;;;;;;4988020;28;20030;-52
2023/06/26 11:52:56;;;;;;;16.90;11.82;;;28.90;76.60;;;;;;4971069;28;20027;-52
2023/06/26 11:55:26;;;;;;;19.52;12.43;;;28.70;76.00;;;;;;4988207;28;20157;-52
2023/06/26 11:57:56;;;;;;;18.50;14.17;;;28.90;76.30;;;;;;4987807;28;20042;-51
2023/06/26 12:00:23;;;;;;;23.25;15.52;;;28.60;76.90;;;;;;4970814;28;20270;-52
2023/06/26 12:02:49;;;;;;;17.02;12.93;;;28.20;77.80;;;;;;4988064;28;20030;-52
2023/06/26 12:05:16;;;;;;;19.60;12.95;;;27.80;79.40;;;;;;4985641;28;20062;-51
2023/06/26 12:07:45;;;;;;;17.63;10.77;;;27.30;79.90;;;;;;4978780;28;20118;-52
2023/06/26 12:10:12;;;;;;;15.37;10.20;;;27.00;79.80;;;;;;4985336;28;20036;-52
2023/06/26 12:12:39;;;;;;;13.90;9.32;;;26.90;80.20;;;;;;4985057;28;20083;-51
2023/06/26 12:15:09;;;;;;;12.75;8.15;;;27.10;79.10;;;;;;4978030;28;20034;-53
2023/06/26 12:17:38;;;;;;;9.98;7.53;;;26.90;78.70;;;;;;4976537;28;20042;-52
2023/06/26 12:20:05;;;;;;;11.30;7.65;;;26.70;80.30;;;;;;4978436;28;20105;-51
2023/06/26 12:22:35;;;;;;;8.77;7.03;;;26.30;80.80;;;;;;4979148;28;20392;-52
2023/06/26 12:25:00;;;;;;;10.27;7.28;;;25.90;81.90;;;;;;4989089;28;20487;-52
2023/06/26 12:27:27;;;;;;;9.30;7.05;;;25.80;83.20;;;;;;4977551;28;20038;-52
2023/06/26 12:29:54;;;;;;;9.63;7.53;;;25.60;83.20;;;;;;4976544;28;20138;-52
2023/06/26 12:32:21;;;;;;;11.05;7.13;;;25.40;82.80;;;;;;4978488;28;20022;-52
2023/06/26 12:34:49;;;;;;;10.98;7.20;;;25.10;84.80;;;;;;4977924;28;20455;-52
2023/06/26 12:37:15;;;;;;;13.65;7.85;;;24.80;85.70;;;;;;4976953;28;20678;-51
2023/06/26 12:39:52;;;;;;;9.45;6.88;;;24.70;86.40;;;;;;4981701;28;20026;-52
2023/06/26 12:42:20;;;;;;;8.80;7.22;;;24.60;87.80;;;;;;4993892;28;20126;-52
2023/06/26 12:44:46;;;;;;;12.40;7.45;;;24.40;88.20;;;;;;4987288;28;20026;-52
2023/06/26 12:47:14;;;;;;;13.98;7.93;;;24.40;89.90;;;;;;4987028;28;20030;-51